sensor_id;sensor_type;location;lat;lon;timestamp;P1;durP1;ratioP1;P2;durP2;ratioP2
80944;SDS011;70400;50.934;11.590;2023-10-09T00:00:33;4.43;;;2.33;;
80944;SDS011;70400;50.934;11.590;2023-10-09T00:01:31;5.97;;;2.72;;
80944;SDS011;70400;50.934;11.590;2023-10-09T00:02:22;5.55;;;3.13;;
80944;SDS011;70400;50.934;11.590;2023-10-09T00:03:13;4.05;;;2.30;;
80944;SDS011;70400;50.934;11.590;2023-10-09T00:04:04;4.03;;;2.42;;
80944;SDS011;70400;50.934;11.590;2023-10-09T00:05:02;5.03;;;2.42;;
80944;SDS011;70400;50.934;11.590;2023-10-09T00:06:02;4.78;;;2.53;;
80944;SDS011;70400;50.934;11.590;2023-10-09T00:06:54;4.22;;;2.35;;
80944;SDS011;70400;50.934;11.590;2023-10-09T00:07:50;7.57;;;3.53;;
80944;SDS011;70400;50.934;11.590;2023-10-09T00:08:46;5.97;;;2.70;;
80944;SDS011;70400;50.934;11.590;2023-10-09T00:09:41;4.30;;;2.75;;
80944;SDS011;70400;50.934;11.590;2023-10-09T00:10:38;4.05;;;2.35;;
80944;SDS011;70400;50.934;11.590;2023-10-09T00:11:40;4.63;;;2.28;;
80944;SDS011;70400;50.934;11.590;2023-10-09T00:12:34;7.03;;;2.58;;
80944;SDS011;70400;50.934;11.590;2023-10-09T00:13:26;4.75;;;2.95;;
80944;SDS011;70400;50.934;11.590;2023-10-09T00:14:20;5.40;;;2.95;;
80944;SDS011;70400;50.934;11.590;2023-10-09T00:15:11;6.03;;;2.63;;
80944;SDS011;70400;50.934;11.590;2023-10-09T00:16:06;6.50;;;2.42;;
80944;SDS011;70400;50.934;11.590;2023-10-09T00:17:06;4.57;;;2.70;;
80944;SDS011;70400;50.934;11.590;2023-10-09T00:18:02;4.97;;;2.70;;
80944;SDS011;70400;50.934;11.590;2023-10-09T00:19:03;6.07;;;2.65;;
80944;SDS011;70400;50.934;11.590;2023-10-09T00:20:24;4.65;;;2.63;;
80944;SDS011;70400;50.934;11.590;2023-10-09T00:21:27;4.13;;;2.42;;
80944;SDS011;70400;50.934;11.590;2023-10-09T00:22:25;4.60;;;2.45;;
80944;SDS011;70400;50.934;11.590;2023-10-09T00:23:16;4.18;;;2.50;;
80944;SDS011;70400;50.934;11.590;2023-10-09T00:24:07;5.07;;;2.80;;
80944;SDS011;70400;50.934;11.590;2023-10-09T00:25:04;4.10;;;2.55;;
80944;SDS011;70400;50.934;11.590;2023-10-09T00:26:01;4.82;;;2.53;;
80944;SDS011;70400;50.934;11.590;2023-10-09T00:27:13;4.70;;;2.70;;
80944;SDS011;70400;50.934;11.590;2023-10-09T00:28:10;3.95;;;2.10;;
80944;SDS011;70400;50.934;11.590;2023-10-09T00:29:02;4.25;;;2.83;;
80944;SDS011;70400;50.934;11.590;2023-10-09T00:29:56;4.43;;;2.22;;
80944;SDS011;70400;50.934;11.590;2023-10-09T00:30:47;4.47;;;2.67;;
80944;SDS011;70400;50.934;11.590;2023-10-09T00:31:38;4.05;;;2.45;;
80944;SDS011;70400;50.934;11.590;2023-10-09T00:32:29;5.55;;;2.83;;
80944;SDS011;70400;50.934;11.590;2023-10-09T00:33:23;4.82;;;2.78;;
80944;SDS011;70400;50.934;11.590;2023-10-09T00:34:14;6.25;;;3.00;;
80944;SDS011;70400;50.934;11.590;2023-10-09T00:35:10;4.53;;;2.70;;
80944;SDS011;70400;50.934;11.590;2023-10-09T00:36:19;7.53;;;2.90;;
80944;SDS011;70400;50.934;11.590;2023-10-09T00:37:18;4.43;;;2.67;;
80944;SDS011;70400;50.934;11.590;2023-10-09T00:38:16;6.10;;;2.42;;
80944;SDS011;70400;50.934;11.590;2023-10-09T00:39:13;4.47;;;2.88;;
80944;SDS011;70400;50.934;11.590;2023-10-09T00:40:10;5.90;;;2.70;;
80944;SDS011;70400;50.934;11.590;2023-10-09T00:41:03;5.50;;;2.60;;
80944;SDS011;70400;50.934;11.590;2023-10-09T00:42:13;5.00;;;2.60;;
80944;SDS011;70400;50.934;11.590;2023-10-09T00:43:15;5.57;;;2.92;;
80944;SDS011;70400;50.934;11.590;2023-10-09T00:44:09;6.65;;;2.95;;
80944;SDS011;70400;50.934;11.590;2023-10-09T00:45:02;6.10;;;2.50;;
80944;SDS011;70400;50.934;11.590;2023-10-09T00:45:59;5.20;;;2.75;;
80944;SDS011;70400;50.934;11.590;2023-10-09T00:46:58;4.82;;;2.60;;
80944;SDS011;70400;50.934;11.590;2023-10-09T00:47:58;6.45;;;2.70;;
80944;SDS011;70400;50.934;11.590;2023-10-09T00:48:54;5.50;;;2.58;;
80944;SDS011;70400;50.934;11.590;2023-10-09T00:49:50;6.65;;;2.80;;
80944;SDS011;70400;50.934;11.590;2023-10-09T00:50:50;5.65;;;2.53;;
80944;SDS011;70400;50.934;11.590;2023-10-09T00:51:46;6.95;;;3.30;;
80944;SDS011;70400;50.934;11.590;2023-10-09T00:52:49;9.30;;;3.00;;
80944;SDS011;70400;50.934;11.590;2023-10-09T00:53:52;7.07;;;2.80;;
80944;SDS011;70400;50.934;11.590;2023-10-09T00:54:48;7.38;;;3.67;;
80944;SDS011;70400;50.934;11.590;2023-10-09T00:55:42;7.05;;;3.35;;
80944;SDS011;70400;50.934;11.590;2023-10-09T00:56:33;5.72;;;3.20;;
80944;SDS011;70400;50.934;11.590;2023-10-09T00:57:35;5.93;;;3.00;;
80944;SDS011;70400;50.934;11.590;2023-10-09T00:58:28;6.22;;;3.50;;
80944;SDS011;70400;50.934;11.590;2023-10-09T00:59:21;6.35;;;3.28;;
80944;SDS011;70400;50.934;11.590;2023-10-09T01:00:15;5.78;;;3.30;;
80944;SDS011;70400;50.934;11.590;2023-10-09T01:01:22;5.10;;;3.20;;
80944;SDS011;70400;50.934;11.590;2023-10-09T01:02:26;4.82;;;3.35;;
80944;SDS011;70400;50.934;11.590;2023-10-09T01:03:26;5.20;;;3.30;;
80944;SDS011;70400;50.934;11.590;2023-10-09T01:04:18;6.72;;;3.20;;
80944;SDS011;70400;50.934;11.590;2023-10-09T01:05:10;5.60;;;3.10;;
80944;SDS011;70400;50.934;11.590;2023-10-09T01:06:10;7.45;;;3.53;;
80944;SDS011;70400;50.934;11.590;2023-10-09T01:07:02;8.02;;;3.63;;
80944;SDS011;70400;50.934;11.590;2023-10-09T01:08:07;4.68;;;3.00;;
80944;SDS011;70400;50.934;11.590;2023-10-09T01:09:07;6.78;;;3.30;;
80944;SDS011;70400;50.934;11.590;2023-10-09T01:10:01;7.68;;;3.10;;
80944;SDS011;70400;50.934;11.590;2023-10-09T01:11:01;6.20;;;3.38;;
80944;SDS011;70400;50.934;11.590;2023-10-09T01:12:01;7.10;;;3.35;;
80944;SDS011;70400;50.934;11.590;2023-10-09T01:12:52;5.43;;;3.10;;
80944;SDS011;70400;50.934;11.590;2023-10-09T01:13:46;5.20;;;3.00;;
80944;SDS011;70400;50.934;11.590;2023-10-09T01:14:41;8.80;;;3.35;;
80944;SDS011;70400;50.934;11.590;2023-10-09T01:15:32;6.35;;;3.38;;
80944;SDS011;70400;50.934;11.590;2023-10-09T01:16:34;6.53;;;2.70;;
80944;SDS011;70400;50.934;11.590;2023-10-09T01:17:26;5.53;;;2.85;;
80944;SDS011;70400;50.934;11.590;2023-10-09T01:18:27;5.43;;;3.05;;
80944;SDS011;70400;50.934;11.590;2023-10-09T01:19:27;5.70;;;2.90;;
80944;SDS011;70400;50.934;11.590;2023-10-09T01:20:22;6.47;;;3.10;;
80944;SDS011;70400;50.934;11.590;2023-10-09T01:21:18;5.95;;;3.33;;
80944;SDS011;70400;50.934;11.590;2023-10-09T01:22:15;7.28;;;3.63;;
80944;SDS011;70400;50.934;11.590;2023-10-09T01:23:09;4.78;;;3.05;;
80944;SDS011;70400;50.934;11.590;2023-10-09T01:24:01;6.50;;;3.38;;
80944;SDS011;70400;50.934;11.590;2023-10-09T01:24:57;7.95;;;3.50;;
80944;SDS011;70400;50.934;11.590;2023-10-09T01:25:48;6.70;;;3.47;;
80944;SDS011;70400;50.934;11.590;2023-10-09T01:26:40;6.43;;;3.63;;
80944;SDS011;70400;50.934;11.590;2023-10-09T01:27:36;4.68;;;2.80;;
80944;SDS011;70400;50.934;11.590;2023-10-09T01:28:31;8.13;;;3.30;;
80944;SDS011;70400;50.934;11.590;2023-10-09T01:29:23;5.30;;;3.22;;
80944;SDS011;70400;50.934;11.590;2023-10-09T01:30:18;5.97;;;2.92;;
80944;SDS011;70400;50.934;11.590;2023-10-09T01:31:10;6.40;;;3.20;;
80944;SDS011;70400;50.934;11.590;2023-10-09T01:32:01;6.10;;;3.25;;
80944;SDS011;70400;50.934;11.590;2023-10-09T01:32:53;5.10;;;3.22;;
80944;SDS011;70400;50.934;11.590;2023-10-09T01:33:48;7.82;;;3.88;;
80944;SDS011;70400;50.934;11.590;2023-10-09T01:34:39;7.50;;;3.60;;
80944;SDS011;70400;50.934;11.590;2023-10-09T01:35:30;4.70;;;2.70;;
80944;SDS011;70400;50.934;11.590;2023-10-09T01:36:23;7.75;;;3.70;;
80944;SDS011;70400;50.934;11.590;2023-10-09T01:37:22;6.75;;;3.50;;
80944;SDS011;70400;50.934;11.590;2023-10-09T01:38:14;7.53;;;3.63;;
80944;SDS011;70400;50.934;11.590;2023-10-09T01:39:06;6.47;;;3.33;;
80944;SDS011;70400;50.934;11.590;2023-10-09T01:40:12;7.65;;;3.08;;
80944;SDS011;70400;50.934;11.590;2023-10-09T01:41:17;6.88;;;3.17;;
80944;SDS011;70400;50.934;11.590;2023-10-09T01:42:10;6.97;;;4.03;;
80944;SDS011;70400;50.934;11.590;2023-10-09T01:43:01;6.07;;;3.70;;
80944;SDS011;70400;50.934;11.590;2023-10-09T01:43:54;6.72;;;3.33;;
80944;SDS011;70400;50.934;11.590;2023-10-09T01:44:52;5.25;;;3.38;;
80944;SDS011;70400;50.934;11.590;2023-10-09T01:45:43;5.32;;;3.17;;
80944;SDS011;70400;50.934;11.590;2023-10-09T01:46:38;7.05;;;3.05;;
80944;SDS011;70400;50.934;11.590;2023-10-09T01:47:28;7.65;;;3.75;;
80944;SDS011;70400;50.934;11.590;2023-10-09T01:48:23;5.22;;;3.20;;
80944;SDS011;70400;50.934;11.590;2023-10-09T01:49:15;6.10;;;3.55;;
80944;SDS011;70400;50.934;11.590;2023-10-09T01:50:12;4.35;;;2.80;;
80944;SDS011;70400;50.934;11.590;2023-10-09T01:51:14;6.32;;;3.30;;
80944;SDS011;70400;50.934;11.590;2023-10-09T01:52:07;6.47;;;3.22;;
80944;SDS011;70400;50.934;11.590;2023-10-09T01:52:59;8.00;;;3.42;;
80944;SDS011;70400;50.934;11.590;2023-10-09T01:53:53;4.95;;;2.80;;
80944;SDS011;70400;50.934;11.590;2023-10-09T01:54:50;7.68;;;4.03;;
80944;SDS011;70400;50.934;11.590;2023-10-09T01:55:42;6.60;;;3.28;;
80944;SDS011;70400;50.934;11.590;2023-10-09T01:56:36;7.28;;;3.72;;
80944;SDS011;70400;50.934;11.590;2023-10-09T01:57:30;5.20;;;3.15;;
80944;SDS011;70400;50.934;11.590;2023-10-09T01:58:21;4.95;;;3.22;;
80944;SDS011;70400;50.934;11.590;2023-10-09T01:59:12;7.00;;;3.20;;
80944;SDS011;70400;50.934;11.590;2023-10-09T02:00:03;6.75;;;2.65;;
80944;SDS011;70400;50.934;11.590;2023-10-09T02:01:01;7.03;;;3.13;;
80944;SDS011;70400;50.934;11.590;2023-10-09T02:01:55;6.25;;;2.75;;
80944;SDS011;70400;50.934;11.590;2023-10-09T02:02:49;4.32;;;3.13;;
80944;SDS011;70400;50.934;11.590;2023-10-09T02:03:40;7.63;;;2.88;;
80944;SDS011;70400;50.934;11.590;2023-10-09T02:04:33;6.22;;;3.30;;
80944;SDS011;70400;50.934;11.590;2023-10-09T02:06:17;7.43;;;2.92;;
80944;SDS011;70400;50.934;11.590;2023-10-09T02:07:23;6.05;;;3.10;;
80944;SDS011;70400;50.934;11.590;2023-10-09T02:08:18;7.53;;;3.55;;
80944;SDS011;70400;50.934;11.590;2023-10-09T02:09:12;6.32;;;2.95;;
80944;SDS011;70400;50.934;11.590;2023-10-09T02:10:11;8.32;;;3.17;;
80944;SDS011;70400;50.934;11.590;2023-10-09T02:11:22;8.95;;;3.45;;
80944;SDS011;70400;50.934;11.590;2023-10-09T02:12:32;4.97;;;2.78;;
80944;SDS011;70400;50.934;11.590;2023-10-09T02:13:24;7.63;;;3.05;;
80944;SDS011;70400;50.934;11.590;2023-10-09T02:14:24;6.18;;;3.10;;
80944;SDS011;70400;50.934;11.590;2023-10-09T02:15:15;7.53;;;3.60;;
80944;SDS011;70400;50.934;11.590;2023-10-09T02:16:07;5.93;;;3.08;;
80944;SDS011;70400;50.934;11.590;2023-10-09T02:17:19;7.72;;;3.78;;
80944;SDS011;70400;50.934;11.590;2023-10-09T02:19:15;6.65;;;3.17;;
80944;SDS011;70400;50.934;11.590;2023-10-09T02:20:20;5.63;;;2.97;;
80944;SDS011;70400;50.934;11.590;2023-10-09T02:21:19;7.47;;;3.50;;
80944;SDS011;70400;50.934;11.590;2023-10-09T02:22:25;11.80;;;3.75;;
80944;SDS011;70400;50.934;11.590;2023-10-09T02:23:16;6.70;;;3.10;;
80944;SDS011;70400;50.934;11.590;2023-10-09T02:24:08;5.70;;;3.13;;
80944;SDS011;70400;50.934;11.590;2023-10-09T02:25:17;8.30;;;3.70;;
80944;SDS011;70400;50.934;11.590;2023-10-09T02:26:11;6.00;;;2.90;;
80944;SDS011;70400;50.934;11.590;2023-10-09T02:27:08;9.43;;;3.38;;
80944;SDS011;70400;50.934;11.590;2023-10-09T02:28:02;6.35;;;2.75;;
80944;SDS011;70400;50.934;11.590;2023-10-09T02:28:56;10.48;;;3.80;;
80944;SDS011;70400;50.934;11.590;2023-10-09T02:29:51;6.72;;;3.25;;
80944;SDS011;70400;50.934;11.590;2023-10-09T02:30:44;6.07;;;3.13;;
80944;SDS011;70400;50.934;11.590;2023-10-09T02:31:38;7.22;;;3.70;;
80944;SDS011;70400;50.934;11.590;2023-10-09T02:32:36;6.22;;;3.42;;
80944;SDS011;70400;50.934;11.590;2023-10-09T02:33:31;8.10;;;3.53;;
80944;SDS011;70400;50.934;11.590;2023-10-09T02:34:23;11.43;;;3.60;;
80944;SDS011;70400;50.934;11.590;2023-10-09T02:35:18;6.22;;;3.17;;
80944;SDS011;70400;50.934;11.590;2023-10-09T02:36:28;4.47;;;3.10;;
80944;SDS011;70400;50.934;11.590;2023-10-09T02:37:20;10.05;;;3.83;;
80944;SDS011;70400;50.934;11.590;2023-10-09T02:38:15;6.03;;;3.40;;
80944;SDS011;70400;50.934;11.590;2023-10-09T02:39:10;5.60;;;2.92;;
80944;SDS011;70400;50.934;11.590;2023-10-09T02:40:15;7.65;;;3.70;;
80944;SDS011;70400;50.934;11.590;2023-10-09T02:41:22;6.78;;;3.30;;
80944;SDS011;70400;50.934;11.590;2023-10-09T02:42:19;7.72;;;3.45;;
80944;SDS011;70400;50.934;11.590;2023-10-09T02:43:14;9.18;;;3.42;;
80944;SDS011;70400;50.934;11.590;2023-10-09T02:44:08;9.15;;;3.70;;
80944;SDS011;70400;50.934;11.590;2023-10-09T02:45:03;8.77;;;3.55;;
80944;SDS011;70400;50.934;11.590;2023-10-09T02:46:01;6.03;;;2.90;;
80944;SDS011;70400;50.934;11.590;2023-10-09T02:47:04;8.32;;;3.75;;
80944;SDS011;70400;50.934;11.590;2023-10-09T02:48:09;9.48;;;3.92;;
80944;SDS011;70400;50.934;11.590;2023-10-09T02:49:02;8.38;;;3.42;;
80944;SDS011;70400;50.934;11.590;2023-10-09T02:50:00;5.80;;;3.50;;
80944;SDS011;70400;50.934;11.590;2023-10-09T02:50:57;6.05;;;3.40;;
80944;SDS011;70400;50.934;11.590;2023-10-09T02:51:48;10.40;;;3.60;;
80944;SDS011;70400;50.934;11.590;2023-10-09T02:52:43;6.82;;;3.40;;
80944;SDS011;70400;50.934;11.590;2023-10-09T02:53:34;5.75;;;3.40;;
80944;SDS011;70400;50.934;11.590;2023-10-09T02:54:25;8.52;;;4.10;;
80944;SDS011;70400;50.934;11.590;2023-10-09T02:55:26;8.88;;;4.25;;
80944;SDS011;70400;50.934;11.590;2023-10-09T02:56:19;7.78;;;3.13;;
80944;SDS011;70400;50.934;11.590;2023-10-09T02:57:19;8.65;;;3.67;;
80944;SDS011;70400;50.934;11.590;2023-10-09T02:58:13;6.53;;;3.65;;
80944;SDS011;70400;50.934;11.590;2023-10-09T02:59:11;8.23;;;4.20;;
80944;SDS011;70400;50.934;11.590;2023-10-09T03:00:03;7.50;;;3.45;;
80944;SDS011;70400;50.934;11.590;2023-10-09T03:00:59;9.65;;;4.20;;
80944;SDS011;70400;50.934;11.590;2023-10-09T03:01:50;6.85;;;4.20;;
80944;SDS011;70400;50.934;11.590;2023-10-09T03:02:45;7.20;;;4.20;;
80944;SDS011;70400;50.934;11.590;2023-10-09T03:03:41;10.00;;;5.38;;
80944;SDS011;70400;50.934;11.590;2023-10-09T03:04:39;10.32;;;4.75;;
80944;SDS011;70400;50.934;11.590;2023-10-09T03:05:32;11.30;;;4.97;;
80944;SDS011;70400;50.934;11.590;2023-10-09T03:06:24;8.65;;;5.18;;
80944;SDS011;70400;50.934;11.590;2023-10-09T03:07:19;11.00;;;5.40;;
80944;SDS011;70400;50.934;11.590;2023-10-09T03:08:13;9.32;;;4.90;;
80944;SDS011;70400;50.934;11.590;2023-10-09T03:09:05;8.48;;;4.35;;
80944;SDS011;70400;50.934;11.590;2023-10-09T03:10:07;9.45;;;4.85;;
80944;SDS011;70400;50.934;11.590;2023-10-09T03:11:00;7.25;;;4.50;;
80944;SDS011;70400;50.934;11.590;2023-10-09T03:11:51;6.72;;;3.80;;
80944;SDS011;70400;50.934;11.590;2023-10-09T03:12:44;7.22;;;4.00;;
80944;SDS011;70400;50.934;11.590;2023-10-09T03:13:35;11.20;;;5.07;;
80944;SDS011;70400;50.934;11.590;2023-10-09T03:14:26;8.20;;;4.38;;
80944;SDS011;70400;50.934;11.590;2023-10-09T03:15:17;7.15;;;3.85;;
80944;SDS011;70400;50.934;11.590;2023-10-09T03:16:09;5.95;;;3.70;;
80944;SDS011;70400;50.934;11.590;2023-10-09T03:17:12;7.13;;;3.72;;
80944;SDS011;70400;50.934;11.590;2023-10-09T03:18:03;8.23;;;4.15;;
80944;SDS011;70400;50.934;11.590;2023-10-09T03:18:55;9.68;;;4.70;;
80944;SDS011;70400;50.934;11.590;2023-10-09T03:20:39;9.73;;;4.95;;
80944;SDS011;70400;50.934;11.590;2023-10-09T03:21:32;7.65;;;4.55;;
80944;SDS011;70400;50.934;11.590;2023-10-09T03:22:22;8.85;;;4.60;;
80944;SDS011;70400;50.934;11.590;2023-10-09T03:23:13;9.77;;;4.55;;
80944;SDS011;70400;50.934;11.590;2023-10-09T03:24:04;9.40;;;5.18;;
80944;SDS011;70400;50.934;11.590;2023-10-09T03:24:57;9.15;;;4.50;;
80944;SDS011;70400;50.934;11.590;2023-10-09T03:25:49;10.80;;;4.80;;
80944;SDS011;70400;50.934;11.590;2023-10-09T03:26:40;11.02;;;5.20;;
80944;SDS011;70400;50.934;11.590;2023-10-09T03:27:31;7.57;;;4.50;;
80944;SDS011;70400;50.934;11.590;2023-10-09T03:28:22;10.32;;;5.53;;
80944;SDS011;70400;50.934;11.590;2023-10-09T03:29:13;11.95;;;6.25;;
80944;SDS011;70400;50.934;11.590;2023-10-09T03:30:04;12.00;;;5.47;;
80944;SDS011;70400;50.934;11.590;2023-10-09T03:30:56;8.20;;;4.63;;
80944;SDS011;70400;50.934;11.590;2023-10-09T03:31:50;9.23;;;4.25;;
80944;SDS011;70400;50.934;11.590;2023-10-09T03:32:45;8.27;;;3.67;;
80944;SDS011;70400;50.934;11.590;2023-10-09T03:33:41;8.82;;;5.05;;
80944;SDS011;70400;50.934;11.590;2023-10-09T03:34:32;9.68;;;4.63;;
80944;SDS011;70400;50.934;11.590;2023-10-09T03:35:23;9.60;;;4.15;;
80944;SDS011;70400;50.934;11.590;2023-10-09T03:36:17;10.27;;;3.97;;
80944;SDS011;70400;50.934;11.590;2023-10-09T03:37:08;10.32;;;4.40;;
80944;SDS011;70400;50.934;11.590;2023-10-09T03:38:12;7.43;;;4.32;;
80944;SDS011;70400;50.934;11.590;2023-10-09T03:39:05;6.82;;;4.20;;
80944;SDS011;70400;50.934;11.590;2023-10-09T03:40:16;6.45;;;4.25;;
80944;SDS011;70400;50.934;11.590;2023-10-09T03:41:08;9.70;;;4.43;;
80944;SDS011;70400;50.934;11.590;2023-10-09T03:42:06;9.25;;;4.13;;
80944;SDS011;70400;50.934;11.590;2023-10-09T03:43:02;7.05;;;3.95;;
80944;SDS011;70400;50.934;11.590;2023-10-09T03:43:55;7.18;;;3.97;;
80944;SDS011;70400;50.934;11.590;2023-10-09T03:44:46;9.25;;;4.68;;
80944;SDS011;70400;50.934;11.590;2023-10-09T03:45:48;6.28;;;3.72;;
80944;SDS011;70400;50.934;11.590;2023-10-09T03:46:48;9.52;;;3.83;;
80944;SDS011;70400;50.934;11.590;2023-10-09T03:47:41;8.40;;;3.95;;
80944;SDS011;70400;50.934;11.590;2023-10-09T03:48:39;8.65;;;3.75;;
80944;SDS011;70400;50.934;11.590;2023-10-09T03:49:34;8.52;;;4.90;;
80944;SDS011;70400;50.934;11.590;2023-10-09T03:50:25;10.43;;;4.57;;
80944;SDS011;70400;50.934;11.590;2023-10-09T03:51:29;10.60;;;4.28;;
80944;SDS011;70400;50.934;11.590;2023-10-09T03:52:20;9.98;;;3.70;;
80944;SDS011;70400;50.934;11.590;2023-10-09T03:53:15;11.20;;;4.75;;
80944;SDS011;70400;50.934;11.590;2023-10-09T03:54:07;11.98;;;4.63;;
80944;SDS011;70400;50.934;11.590;2023-10-09T03:55:51;8.25;;;4.30;;
80944;SDS011;70400;50.934;11.590;2023-10-09T03:56:42;7.90;;;3.78;;
80944;SDS011;70400;50.934;11.590;2023-10-09T03:57:33;8.85;;;4.35;;
80944;SDS011;70400;50.934;11.590;2023-10-09T03:58:24;7.50;;;4.28;;
80944;SDS011;70400;50.934;11.590;2023-10-09T03:59:21;17.48;;;3.80;;
80944;SDS011;70400;50.934;11.590;2023-10-09T04:00:12;10.65;;;4.72;;
80944;SDS011;70400;50.934;11.590;2023-10-09T04:01:07;8.75;;;4.50;;
80944;SDS011;70400;50.934;11.590;2023-10-09T04:02:01;10.07;;;4.50;;
80944;SDS011;70400;50.934;11.590;2023-10-09T04:02:56;14.40;;;4.95;;
80944;SDS011;70400;50.934;11.590;2023-10-09T04:03:48;10.90;;;4.35;;
80944;SDS011;70400;50.934;11.590;2023-10-09T04:04:41;8.52;;;3.90;;
80944;SDS011;70400;50.934;11.590;2023-10-09T04:05:38;9.75;;;3.78;;
80944;SDS011;70400;50.934;11.590;2023-10-09T04:06:32;7.80;;;4.43;;
80944;SDS011;70400;50.934;11.590;2023-10-09T04:07:24;9.73;;;4.28;;
80944;SDS011;70400;50.934;11.590;2023-10-09T04:08:16;8.88;;;4.43;;
80944;SDS011;70400;50.934;11.590;2023-10-09T04:09:19;9.40;;;4.22;;
80944;SDS011;70400;50.934;11.590;2023-10-09T04:10:10;11.35;;;4.30;;
80944;SDS011;70400;50.934;11.590;2023-10-09T04:11:20;9.63;;;4.15;;
80944;SDS011;70400;50.934;11.590;2023-10-09T04:12:15;12.70;;;3.95;;
80944;SDS011;70400;50.934;11.590;2023-10-09T04:13:16;8.57;;;4.28;;
80944;SDS011;70400;50.934;11.590;2023-10-09T04:14:13;6.75;;;4.15;;
80944;SDS011;70400;50.934;11.590;2023-10-09T04:15:15;8.00;;;4.13;;
80944;SDS011;70400;50.934;11.590;2023-10-09T04:16:06;10.10;;;4.55;;
80944;SDS011;70400;50.934;11.590;2023-10-09T04:17:16;7.35;;;3.90;;
80944;SDS011;70400;50.934;11.590;2023-10-09T04:18:26;9.73;;;4.30;;
80944;SDS011;70400;50.934;11.590;2023-10-09T04:19:24;11.90;;;4.82;;
80944;SDS011;70400;50.934;11.590;2023-10-09T04:20:15;8.18;;;4.00;;
80944;SDS011;70400;50.934;11.590;2023-10-09T04:21:08;7.65;;;4.40;;
80944;SDS011;70400;50.934;11.590;2023-10-09T04:22:10;6.82;;;3.75;;
80944;SDS011;70400;50.934;11.590;2023-10-09T04:23:16;8.60;;;4.65;;
80944;SDS011;70400;50.934;11.590;2023-10-09T04:24:07;8.52;;;4.30;;
80944;SDS011;70400;50.934;11.590;2023-10-09T04:25:07;9.65;;;4.53;;
80944;SDS011;70400;50.934;11.590;2023-10-09T04:26:05;9.50;;;3.92;;
80944;SDS011;70400;50.934;11.590;2023-10-09T04:27:05;8.88;;;4.20;;
80944;SDS011;70400;50.934;11.590;2023-10-09T04:27:56;10.57;;;4.78;;
80944;SDS011;70400;50.934;11.590;2023-10-09T04:29:01;9.57;;;4.88;;
80944;SDS011;70400;50.934;11.590;2023-10-09T04:30:45;10.00;;;4.97;;
80944;SDS011;70400;50.934;11.590;2023-10-09T04:31:46;10.73;;;4.25;;
80944;SDS011;70400;50.934;11.590;2023-10-09T04:32:42;7.43;;;4.10;;
80944;SDS011;70400;50.934;11.590;2023-10-09T04:33:36;13.48;;;4.50;;
80944;SDS011;70400;50.934;11.590;2023-10-09T04:34:44;7.75;;;4.15;;
80944;SDS011;70400;50.934;11.590;2023-10-09T04:35:48;6.93;;;3.85;;
80944;SDS011;70400;50.934;11.590;2023-10-09T04:36:59;12.05;;;4.57;;
80944;SDS011;70400;50.934;11.590;2023-10-09T04:38:12;8.82;;;4.50;;
80944;SDS011;70400;50.934;11.590;2023-10-09T04:39:03;12.50;;;4.68;;
80944;SDS011;70400;50.934;11.590;2023-10-09T04:39:55;8.30;;;3.63;;
80944;SDS011;70400;50.934;11.590;2023-10-09T04:41:04;7.78;;;4.28;;
80944;SDS011;70400;50.934;11.590;2023-10-09T04:41:56;9.35;;;4.13;;
80944;SDS011;70400;50.934;11.590;2023-10-09T04:43:06;10.88;;;4.53;;
80944;SDS011;70400;50.934;11.590;2023-10-09T04:43:57;11.38;;;4.20;;
80944;SDS011;70400;50.934;11.590;2023-10-09T04:45:10;13.65;;;4.88;;
80944;SDS011;70400;50.934;11.590;2023-10-09T04:46:01;10.65;;;4.55;;
80944;SDS011;70400;50.934;11.590;2023-10-09T04:47:02;8.00;;;4.47;;
80944;SDS011;70400;50.934;11.590;2023-10-09T04:48:04;10.65;;;4.88;;
80944;SDS011;70400;50.934;11.590;2023-10-09T04:48:58;9.43;;;4.85;;
80944;SDS011;70400;50.934;11.590;2023-10-09T04:50:06;9.85;;;5.28;;
80944;SDS011;70400;50.934;11.590;2023-10-09T04:50:59;11.48;;;5.25;;
80944;SDS011;70400;50.934;11.590;2023-10-09T04:52:23;11.75;;;4.70;;
80944;SDS011;70400;50.934;11.590;2023-10-09T04:53:14;14.38;;;4.90;;
80944;SDS011;70400;50.934;11.590;2023-10-09T04:54:08;11.73;;;6.03;;
80944;SDS011;70400;50.934;11.590;2023-10-09T04:55:05;11.52;;;5.15;;
80944;SDS011;70400;50.934;11.590;2023-10-09T04:55:58;11.40;;;5.38;;
80944;SDS011;70400;50.934;11.590;2023-10-09T04:56:55;9.70;;;4.90;;
80944;SDS011;70400;50.934;11.590;2023-10-09T04:57:46;15.32;;;5.85;;
80944;SDS011;70400;50.934;11.590;2023-10-09T04:58:52;11.20;;;5.95;;
80944;SDS011;70400;50.934;11.590;2023-10-09T04:59:54;13.60;;;7.53;;
80944;SDS011;70400;50.934;11.590;2023-10-09T05:00:49;13.55;;;6.95;;
80944;SDS011;70400;50.934;11.590;2023-10-09T05:01:55;13.43;;;6.68;;
80944;SDS011;70400;50.934;11.590;2023-10-09T05:02:49;14.40;;;6.50;;
80944;SDS011;70400;50.934;11.590;2023-10-09T05:03:45;14.60;;;6.38;;
80944;SDS011;70400;50.934;11.590;2023-10-09T05:04:37;15.20;;;6.30;;
80944;SDS011;70400;50.934;11.590;2023-10-09T05:05:28;19.80;;;5.55;;
80944;SDS011;70400;50.934;11.590;2023-10-09T05:06:32;12.88;;;6.30;;
80944;SDS011;70400;50.934;11.590;2023-10-09T05:07:33;17.58;;;6.25;;
80944;SDS011;70400;50.934;11.590;2023-10-09T05:08:45;17.92;;;7.15;;
80944;SDS011;70400;50.934;11.590;2023-10-09T05:09:37;13.68;;;5.32;;
80944;SDS011;70400;50.934;11.590;2023-10-09T05:10:46;11.23;;;6.15;;
80944;SDS011;70400;50.934;11.590;2023-10-09T05:11:49;11.35;;;5.88;;
80944;SDS011;70400;50.934;11.590;2023-10-09T05:12:43;14.65;;;6.18;;
80944;SDS011;70400;50.934;11.590;2023-10-09T05:13:46;10.98;;;5.57;;
80944;SDS011;70400;50.934;11.590;2023-10-09T05:14:48;12.93;;;5.90;;
80944;SDS011;70400;50.934;11.590;2023-10-09T05:15:58;12.68;;;4.93;;
80944;SDS011;70400;50.934;11.590;2023-10-09T05:16:54;11.05;;;5.55;;
80944;SDS011;70400;50.934;11.590;2023-10-09T05:18:47;11.27;;;4.60;;
80944;SDS011;70400;50.934;11.590;2023-10-09T05:19:57;10.98;;;5.25;;
80944;SDS011;70400;50.934;11.590;2023-10-09T05:21:08;11.27;;;4.70;;
80944;SDS011;70400;50.934;11.590;2023-10-09T05:22:26;10.63;;;4.90;;
80944;SDS011;70400;50.934;11.590;2023-10-09T05:23:28;11.95;;;5.15;;
80944;SDS011;70400;50.934;11.590;2023-10-09T05:24:25;9.95;;;6.00;;
80944;SDS011;70400;50.934;11.590;2023-10-09T05:25:19;10.70;;;4.72;;
80944;SDS011;70400;50.934;11.590;2023-10-09T05:26:29;14.57;;;5.20;;
80944;SDS011;70400;50.934;11.590;2023-10-09T05:27:39;9.77;;;5.22;;
80944;SDS011;70400;50.934;11.590;2023-10-09T05:28:36;10.70;;;4.63;;
80944;SDS011;70400;50.934;11.590;2023-10-09T05:29:39;14.35;;;5.90;;
80944;SDS011;70400;50.934;11.590;2023-10-09T05:30:50;11.85;;;4.63;;
80944;SDS011;70400;50.934;11.590;2023-10-09T05:31:53;14.15;;;5.65;;
80944;SDS011;70400;50.934;11.590;2023-10-09T05:32:48;10.52;;;5.43;;
80944;SDS011;70400;50.934;11.590;2023-10-09T05:33:39;13.38;;;5.35;;
80944;SDS011;70400;50.934;11.590;2023-10-09T05:34:30;12.57;;;5.28;;
80944;SDS011;70400;50.934;11.590;2023-10-09T05:35:25;11.77;;;5.57;;
80944;SDS011;70400;50.934;11.590;2023-10-09T05:36:31;13.65;;;5.50;;
80944;SDS011;70400;50.934;11.590;2023-10-09T05:38:16;13.02;;;5.10;;
80944;SDS011;70400;50.934;11.590;2023-10-09T05:39:14;10.68;;;5.35;;
80944;SDS011;70400;50.934;11.590;2023-10-09T05:40:29;12.98;;;5.13;;
80944;SDS011;70400;50.934;11.590;2023-10-09T05:41:22;13.00;;;6.10;;
80944;SDS011;70400;50.934;11.590;2023-10-09T05:42:22;10.75;;;4.85;;